createdAt,value
2023-01-05T00:00:53.590Z,24.42
2023-01-05T00:06:00.713Z,23.76
2023-01-05T00:11:07.931Z,24.17
2023-01-05T00:16:15.185Z,24.93
2023-01-05T00:21:22.300Z,25.34
2023-01-05T00:26:29.512Z,25.53
2023-01-05T00:31:36.810Z,25.75
2023-01-05T00:36:43.946Z,25.81
2023-01-05T00:41:51.193Z,25.99
2023-01-05T00:46:58.381Z,26.21
2023-01-05T00:52:05.562Z,26.36
2023-01-05T00:57:12.757Z,26.60
2023-01-05T01:02:20.149Z,26.73
2023-01-05T01:07:27.181Z,26.80
2023-01-05T01:12:34.431Z,26.99
2023-01-05T01:17:41.639Z,27.11
2023-01-05T01:22:48.787Z,27.29
2023-01-05T01:27:55.990Z,27.39
2023-01-05T01:33:03.188Z,27.51
2023-01-05T01:38:10.335Z,27.59
2023-01-05T01:43:17.612Z,27.71
2023-01-05T01:48:24.873Z,27.84
2023-01-05T01:53:31.998Z,27.89
2023-01-05T01:58:39.243Z,28.05
2023-01-05T02:03:46.514Z,28.05
2023-01-05T02:08:53.659Z,28.17
2023-01-05T02:14:00.857Z,28.26
2023-01-05T02:19:08.084Z,28.36
2023-01-05T02:24:15.268Z,28.43
2023-01-05T02:29:22.446Z,28.53
2023-01-05T02:34:29.677Z,28.52
2023-01-05T02:39:36.869Z,28.65
2023-01-05T02:44:44.083Z,28.73
2023-01-05T02:49:51.362Z,28.78
2023-01-05T02:54:58.582Z,28.77
2023-01-05T03:00:05.813Z,28.88
2023-01-05T03:05:13.028Z,28.95
2023-01-05T03:10:20.209Z,28.99
2023-01-05T03:15:27.407Z,29.04
2023-01-05T03:20:34.612Z,29.11
2023-01-05T03:25:41.795Z,29.19
2023-01-05T03:30:49.065Z,29.14
2023-01-05T03:35:56.247Z,28.57
2023-01-05T03:41:03.440Z,28.02
2023-01-05T03:46:10.755Z,29.03
2023-01-05T03:51:17.932Z,28.87
2023-01-05T03:56:25.143Z,28.95
2023-01-05T04:01:32.483Z,28.89
2023-01-05T04:06:39.572Z,29.03
2023-01-05T04:11:46.752Z,29.23
2023-01-05T04:16:53.961Z,29.28
2023-01-05T04:22:01.192Z,29.01
2023-01-05T04:27:08.324Z,29.26
2023-01-05T04:32:15.588Z,29.24
2023-01-05T04:37:22.757Z,29.28
2023-01-05T04:42:29.961Z,29.00
2023-01-05T04:47:37.106Z,29.30
2023-01-05T04:52:44.315Z,29.49
2023-01-05T04:57:51.516Z,29.58
2023-01-05T05:02:58.966Z,29.67
2023-01-05T05:08:05.978Z,29.70
2023-01-05T05:13:13.160Z,29.74
2023-01-05T05:18:20.535Z,29.80
2023-01-05T05:23:27.770Z,29.81
2023-01-05T05:28:34.942Z,29.84
2023-01-05T05:33:42.108Z,29.85
2023-01-05T05:38:49.326Z,29.88
2023-01-05T05:43:56.649Z,29.84
2023-01-05T05:49:03.855Z,29.86
2023-01-05T05:54:11.110Z,29.92
2023-01-05T05:59:18.258Z,29.92
2023-01-05T06:04:25.476Z,29.95
2023-01-05T06:09:32.689Z,29.96
2023-01-05T06:14:39.873Z,29.93
2023-01-05T06:19:47.083Z,29.91
2023-01-05T06:24:54.307Z,29.93
2023-01-05T06:30:01.553Z,29.89
2023-01-05T06:35:08.805Z,29.83
2023-01-05T06:40:16.047Z,29.81
2023-01-05T06:45:23.478Z,29.88
2023-01-05T06:50:30.610Z,29.90
2023-01-05T06:55:37.888Z,29.97
2023-01-05T07:00:45.180Z,29.96
2023-01-05T07:05:52.348Z,29.98
2023-01-05T07:10:59.553Z,30.01
2023-01-05T07:16:06.785Z,29.95
2023-01-05T07:21:13.960Z,30.08
2023-01-05T07:26:21.176Z,30.01
2023-01-05T07:31:28.384Z,29.91
2023-01-05T07:36:35.597Z,29.85
2023-01-05T07:41:42.847Z,29.66
2023-01-05T07:46:50.021Z,29.58
2023-01-05T07:51:57.270Z,29.66
2023-01-05T07:57:04.485Z,29.58
2023-01-05T08:02:11.907Z,29.51
2023-01-05T08:07:18.804Z,29.36
2023-01-05T08:12:26.009Z,29.30
2023-01-05T08:17:33.141Z,29.18
2023-01-05T08:22:40.508Z,29.03
2023-01-05T08:27:47.757Z,28.95
2023-01-05T08:32:54.928Z,28.84
2023-01-05T08:38:02.142Z,28.79
2023-01-05T08:43:09.368Z,28.74
2023-01-05T08:48:16.553Z,28.67
2023-01-05T08:53:23.813Z,28.62
2023-01-05T08:58:31.045Z,28.57
2023-01-05T09:03:38.314Z,28.61
2023-01-05T09:08:45.485Z,28.55
2023-01-05T09:13:52.780Z,28.51
2023-01-05T09:19:00.031Z,28.54
2023-01-05T09:24:07.255Z,28.50
2023-01-05T09:29:14.565Z,28.55
2023-01-05T09:34:21.788Z,28.59
2023-01-05T09:39:29.255Z,28.64
2023-01-05T09:44:36.644Z,28.66
2023-01-05T09:49:43.739Z,28.96
2023-01-05T09:54:50.919Z,28.75
2023-01-05T09:59:58.315Z,28.87
2023-01-05T10:05:05.701Z,28.98
2023-01-05T10:10:12.628Z,29.30
2023-01-05T10:15:19.818Z,28.88
2023-01-05T10:20:27.054Z,29.15
2023-01-05T10:25:34.279Z,29.23
2023-01-05T10:30:41.671Z,29.14
2023-01-05T10:36:00.548Z,29.06
2023-01-05T10:40:56.020Z,29.09
2023-01-05T10:46:31.204Z,29.10
2023-01-05T10:51:10.407Z,29.15
2023-01-05T10:56:17.564Z,29.12
2023-01-05T11:01:25.136Z,29.13
2023-01-05T11:06:31.971Z,29.09
2023-01-05T11:11:39.209Z,29.14
2023-01-05T11:16:46.510Z,29.09
2023-01-05T11:21:59.759Z,29.24
2023-01-05T11:27:00.785Z,29.22
2023-01-05T11:32:08.152Z,29.46
2023-01-05T11:37:15.228Z,28.67
2023-01-05T11:42:25.739Z,28.77
2023-01-05T11:47:29.803Z,29.07
2023-01-05T11:52:36.929Z,29.14
2023-01-05T11:57:44.126Z,29.09
2023-01-05T12:02:51.499Z,29.10
2023-01-05T12:07:58.540Z,29.09
2023-01-05T12:13:05.769Z,29.21
2023-01-05T12:18:13.001Z,29.01
2023-01-05T12:23:20.183Z,29.21
2023-01-05T12:28:40.668Z,29.08
2023-01-05T12:38:41.757Z,29.02
2023-01-05T12:43:48.907Z,29.06
2023-01-05T12:48:56.197Z,29.00
2023-01-05T12:54:03.275Z,29.12
2023-01-05T12:59:10.486Z,29.15
2023-01-05T13:04:17.830Z,29.18
2023-01-05T13:09:24.915Z,29.22
2023-01-05T13:14:32.192Z,29.46
2023-01-05T13:19:39.522Z,29.64
2023-01-05T13:24:46.600Z,29.92
2023-01-05T13:29:53.794Z,29.93
2023-01-05T13:35:01.202Z,29.80
2023-01-05T13:40:08.362Z,29.89
2023-01-05T13:45:15.656Z,30.11
2023-01-05T13:50:22.945Z,30.23
2023-01-05T13:55:30.012Z,30.40
2023-01-05T14:00:37.273Z,30.79
2023-01-05T14:05:44.588Z,29.99
2023-01-05T14:10:51.665Z,29.75
2023-01-05T14:15:58.861Z,30.06
2023-01-05T14:21:06.183Z,30.16
2023-01-05T14:26:13.283Z,29.96
2023-01-05T14:31:20.546Z,29.91
2023-01-05T14:36:27.872Z,29.93
2023-01-05T14:41:34.993Z,30.19
2023-01-05T14:46:42.139Z,30.30
2023-01-05T14:51:49.478Z,29.89
2023-01-05T14:56:56.504Z,29.88
2023-01-05T15:02:03.779Z,29.92
2023-01-05T15:07:11.122Z,30.08
2023-01-05T15:12:18.418Z,29.95
2023-01-05T15:17:25.639Z,29.88
2023-01-05T15:22:38.332Z,29.70
2023-01-05T15:27:40.035Z,30.19
2023-01-05T15:32:47.272Z,30.44
2023-01-05T15:37:54.675Z,30.09
2023-01-05T15:43:01.780Z,30.11
2023-01-05T15:48:09.416Z,30.14
2023-01-05T15:53:16.285Z,30.03
2023-01-05T15:58:23.410Z,30.44
2023-01-05T16:03:30.631Z,30.30
2023-01-05T16:08:38.004Z,29.78
2023-01-05T16:13:45.107Z,29.92
2023-01-05T16:18:52.340Z,30.33
2023-01-05T16:23:59.520Z,30.34
2023-01-05T16:29:06.697Z,30.70
2023-01-05T16:34:13.972Z,30.23
2023-01-05T16:39:21.326Z,30.29
2023-01-05T16:44:28.443Z,30.25
2023-01-05T16:49:37.357Z,29.99
2023-01-05T16:54:43.094Z,30.10
2023-01-05T16:59:50.163Z,30.09
2023-01-05T17:04:57.332Z,30.29
2023-01-05T17:10:04.695Z,30.76
2023-01-05T17:15:11.748Z,30.49
2023-01-05T17:20:19.163Z,30.42
2023-01-05T17:25:26.488Z,30.38
2023-01-05T17:30:33.700Z,30.33
2023-01-05T17:35:40.902Z,30.10
2023-01-05T17:40:48.501Z,30.06
2023-01-05T17:45:55.820Z,30.12
2023-01-05T17:51:03.104Z,30.16
2023-01-05T17:56:11.600Z,30.12
2023-01-05T18:01:19.017Z,30.26
2023-01-05T18:06:26.237Z,30.11
2023-01-05T18:16:40.634Z,30.02
2023-01-05T18:21:47.824Z,29.94
2023-01-05T18:26:55.988Z,29.88
2023-01-05T18:32:02.740Z,29.88
2023-01-05T18:37:20.280Z,29.83
2023-01-05T18:42:17.267Z,29.78
2023-01-05T18:47:24.364Z,29.82
2023-01-05T18:52:31.603Z,29.83
2023-01-05T18:57:39.042Z,29.83
2023-01-05T19:02:46.158Z,29.79
2023-01-05T19:07:53.375Z,29.75
2023-01-05T19:13:00.645Z,29.69
2023-01-05T19:18:07.773Z,29.70
2023-01-05T19:23:14.979Z,29.67
2023-01-05T19:28:22.472Z,29.64
2023-01-05T19:33:29.663Z,29.63
2023-01-05T19:38:36.875Z,29.65
2023-01-05T19:43:44.188Z,29.62
2023-01-05T19:48:51.292Z,29.60
2023-01-05T19:53:58.782Z,29.59
2023-01-05T19:59:06.265Z,29.62
2023-01-05T20:04:13.295Z,29.60
2023-01-05T20:09:20.523Z,29.50
2023-01-05T20:14:27.825Z,29.49
2023-01-05T20:19:34.918Z,29.48
2023-01-05T20:24:42.135Z,29.48
2023-01-05T20:29:49.748Z,29.45
2023-01-05T20:34:57.264Z,30.41
2023-01-05T20:40:04.731Z,30.01
2023-01-05T20:45:12.841Z,29.97
2023-01-05T20:50:19.080Z,30.00
2023-01-05T20:55:26.287Z,29.83
2023-01-05T21:00:33.686Z,29.94
2023-01-05T21:05:40.679Z,29.90
2023-01-05T21:10:47.901Z,29.96
2023-01-05T21:15:55.271Z,29.93
2023-01-05T21:21:02.274Z,29.99
2023-01-05T21:26:13.627Z,30.03
2023-01-05T21:31:16.919Z,30.04
2023-01-05T21:36:24.030Z,30.15
2023-01-05T21:41:31.305Z,30.10
2023-01-05T21:46:38.664Z,30.19
2023-01-05T21:51:45.751Z,30.20
2023-01-05T21:56:52.930Z,30.18
2023-01-05T22:02:00.253Z,30.23
2023-01-05T22:07:07.473Z,30.20
2023-01-05T22:12:14.596Z,30.25
2023-01-05T22:17:21.914Z,30.25
2023-01-05T22:22:29.065Z,30.34
2023-01-05T22:27:36.290Z,30.42
2023-01-05T22:32:43.617Z,30.45
2023-01-05T22:37:50.657Z,30.54
2023-01-05T22:42:57.896Z,30.68
2023-01-05T22:48:05.205Z,30.70
2023-01-05T22:53:12.341Z,30.74
2023-01-05T22:58:19.494Z,30.79
2023-01-05T23:03:26.824Z,30.82
2023-01-05T23:08:33.909Z,30.83
2023-01-05T23:13:41.127Z,30.85
2023-01-05T23:18:48.504Z,30.87
2023-01-05T23:23:55.575Z,30.76
2023-01-05T23:29:02.804Z,30.85
2023-01-05T23:34:10.136Z,30.79
2023-01-05T23:39:17.228Z,30.80
2023-01-05T23:44:24.445Z,30.89
2023-01-05T23:49:31.781Z,30.84
2023-01-05T23:54:38.888Z,30.94
2023-01-05T23:59:46.091Z,30.98
